Search for airport 
image banner adimage banner adimage banner ad
image banner ad

CL91 - Auberry Hydro Service Center

Located in Auberry, United States

ICAO - CL91, IATA -

Data provided by Airmate  

General information

Coordinates: N37°3'56" W119°29'3"
Elevation is 2000 feet MSL.
Magnetic variation is 15° East
View others Airports in California

Operational data

Special qualification required
Current time UTC:
Current local time:
Weather at : KFAT - Fresno Yosemite Intl ( 38 km )
METAR: KFAT 221253Z 32007KT 10SM FEW040 SCT080 SCT130 19/11 A2988 RMK AO2 SLP115 T01890111 $
TAF: KFAT 221120Z 2212/2312 33009KT P6SM SKC
View NOTAMs / SUP AIP / TFR affecting this airport [VIEW]
Communications frequencies: [VIEW]

Runways:

Airport contact information

Address: Auberry United States

Satellite view of CL91